createdAt,value
2022-11-20T00:01:29.771Z,15.57
2022-11-20T00:03:58.763Z,14.82
2022-11-20T00:06:27.171Z,16.10
2022-11-20T00:08:57.507Z,15.80
2022-11-20T00:11:26.303Z,14.52
2022-11-20T00:13:55.966Z,15.90
2022-11-20T00:16:25.128Z,15.25
2022-11-20T00:18:52.343Z,15.05
2022-11-20T00:21:24.676Z,15.05
2022-11-20T00:23:55.307Z,15.82
2022-11-20T00:26:23.403Z,13.70
2022-11-20T00:28:53.080Z,15.23
2022-11-20T00:31:20.312Z,15.68
2022-11-20T00:33:47.394Z,14.80
2022-11-20T00:36:20.083Z,15.70
2022-11-20T00:38:47.203Z,14.55
2022-11-20T00:41:16.317Z,15.38
2022-11-20T00:43:43.813Z,15.35
2022-11-20T00:46:16.054Z,15.30
2022-11-20T00:48:43.454Z,16.45
2022-11-20T00:51:12.102Z,16.08
2022-11-20T00:53:38.877Z,15.25
2022-11-20T00:56:08.065Z,15.85
2022-11-20T00:58:36.790Z,14.90
2022-11-20T01:01:18.355Z,14.52
2022-11-20T01:03:50.154Z,14.98
2022-11-20T01:06:18.781Z,14.75
2022-11-20T01:08:46.638Z,14.15
2022-11-20T01:11:16.441Z,15.35
2022-11-20T01:13:44.142Z,16.58
2022-11-20T01:16:19.682Z,15.60
2022-11-20T01:18:49.266Z,15.70
2022-11-20T01:21:20.304Z,14.30
2022-11-20T01:23:48.176Z,15.00
2022-11-20T01:26:18.300Z,13.60
2022-11-20T01:28:45.390Z,16.25
2022-11-20T01:31:27.266Z,15.88
2022-11-20T01:33:56.640Z,15.23
2022-11-20T01:36:24.783Z,14.73
2022-11-20T01:39:00.577Z,16.13
2022-11-20T01:41:47.885Z,15.10
2022-11-20T01:44:16.486Z,15.93
2022-11-20T01:47:01.811Z,16.65
2022-11-20T01:49:42.014Z,16.20
2022-11-20T01:52:19.989Z,16.38
2022-11-20T01:54:57.293Z,16.17
2022-11-20T01:57:26.370Z,16.70
2022-11-20T02:00:00.861Z,16.35
2022-11-20T02:02:28.434Z,16.50
2022-11-20T02:04:59.876Z,15.50
2022-11-20T02:07:26.855Z,16.13
2022-11-20T02:09:58.385Z,15.35
2022-11-20T02:12:44.448Z,14.10
2022-11-20T02:15:11.297Z,15.60
2022-11-20T02:17:38.593Z,16.17
2022-11-20T02:20:05.860Z,14.85
2022-11-20T02:22:39.683Z,13.68
2022-11-20T02:25:07.971Z,15.20
2022-11-20T02:27:35.240Z,15.70
2022-11-20T02:30:08.671Z,15.25
2022-11-20T02:32:37.301Z,14.20
2022-11-20T02:35:20.744Z,14.30
2022-11-20T02:37:54.108Z,14.60
2022-11-20T02:40:21.076Z,15.45
2022-11-20T02:42:47.857Z,14.90
2022-11-20T02:45:14.661Z,15.00
2022-11-20T02:47:41.462Z,14.55
2022-11-20T02:50:08.735Z,14.50
2022-11-20T02:52:35.577Z,16.08
2022-11-20T02:55:02.742Z,15.32
2022-11-20T02:57:29.583Z,17.13
2022-11-20T02:59:56.848Z,14.50
2022-11-20T03:02:23.667Z,15.95
2022-11-20T03:04:50.457Z,15.30
2022-11-20T03:07:17.436Z,16.55
2022-11-20T03:09:44.306Z,15.30
2022-11-20T03:12:11.145Z,16.48
2022-11-20T03:14:38.001Z,15.63
2022-11-20T03:17:04.765Z,15.90
2022-11-20T03:19:31.785Z,15.77
2022-11-20T03:21:58.650Z,15.23
2022-11-20T03:24:25.508Z,16.90
2022-11-20T03:26:52.351Z,17.13
2022-11-20T03:29:19.515Z,15.98
2022-11-20T03:31:46.709Z,15.32
2022-11-20T03:34:13.632Z,15.27
2022-11-20T03:36:42.028Z,15.07
2022-11-20T03:39:09.295Z,16.55
2022-11-20T03:41:41.489Z,16.30
2022-11-20T03:44:11.526Z,15.65
2022-11-20T03:46:38.803Z,15.07
2022-11-20T03:49:05.726Z,16.13
2022-11-20T03:51:35.293Z,14.68
2022-11-20T03:54:04.857Z,15.90
2022-11-20T03:56:34.700Z,17.17
2022-11-20T03:59:02.080Z,17.60
2022-11-20T04:01:35.329Z,12.93
2022-11-20T04:04:02.663Z,15.52
2022-11-20T04:06:31.816Z,15.32
2022-11-20T04:08:59.379Z,14.15
2022-11-20T04:11:30.710Z,15.13
2022-11-20T04:13:59.959Z,17.42
2022-11-20T04:16:29.587Z,16.65
2022-11-20T04:18:58.463Z,15.00
2022-11-20T04:21:26.224Z,16.17
2022-11-20T04:23:54.248Z,15.27
2022-11-20T04:26:22.113Z,15.20
2022-11-20T04:28:48.873Z,15.00
2022-11-20T04:31:18.127Z,15.05
2022-11-20T04:33:45.637Z,14.38
2022-11-20T04:36:20.552Z,14.38
2022-11-20T04:38:53.846Z,16.30
2022-11-20T04:41:31.638Z,15.15
2022-11-20T04:44:03.330Z,16.30
2022-11-20T04:46:32.142Z,15.07
2022-11-20T04:48:59.784Z,16.33
2022-11-20T04:51:27.354Z,14.90
2022-11-20T04:53:54.698Z,16.40
2022-11-20T04:56:21.683Z,15.93
2022-11-20T04:58:48.622Z,14.43
2022-11-20T05:01:18.270Z,15.63
2022-11-20T05:03:45.694Z,14.38
2022-11-20T05:06:18.153Z,14.60
2022-11-20T05:08:45.174Z,15.10
2022-11-20T05:11:14.704Z,16.10
2022-11-20T05:13:42.460Z,14.85
2022-11-20T05:16:15.324Z,15.70
2022-11-20T05:18:43.084Z,16.30
2022-11-20T05:21:11.596Z,15.98
2022-11-20T05:23:39.150Z,15.30
2022-11-20T05:26:07.805Z,16.10
2022-11-20T05:28:34.881Z,16.30
2022-11-20T05:31:17.330Z,15.65
2022-11-20T05:33:46.643Z,13.60
2022-11-20T05:36:15.403Z,16.40
2022-11-20T05:38:42.769Z,16.48
2022-11-20T05:41:12.370Z,16.40
2022-11-20T05:43:41.334Z,15.48
2022-11-20T05:46:10.207Z,16.27
2022-11-20T05:48:38.169Z,15.35
2022-11-20T05:51:07.273Z,16.25
2022-11-20T05:53:35.195Z,17.40
2022-11-20T05:56:22.292Z,17.42
2022-11-20T05:58:50.001Z,15.48
2022-11-20T06:01:20.776Z,16.67
2022-11-20T06:03:48.779Z,15.70
2022-11-20T06:06:16.749Z,14.93
2022-11-20T06:08:44.444Z,14.43
2022-11-20T06:11:13.206Z,15.18
2022-11-20T06:13:42.490Z,15.02
2022-11-20T06:16:11.491Z,14.98
2022-11-20T06:18:38.664Z,14.98
2022-11-20T06:21:09.176Z,16.10
2022-11-20T06:23:37.025Z,15.90
2022-11-20T06:26:12.314Z,16.42
2022-11-20T06:28:39.716Z,14.68
2022-11-20T06:31:08.328Z,15.15
2022-11-20T06:33:36.061Z,15.43
2022-11-20T06:36:07.444Z,15.90
2022-11-20T06:38:37.570Z,15.88
2022-11-20T06:41:06.089Z,17.40
2022-11-20T06:43:32.966Z,16.65
2022-11-20T06:46:00.420Z,17.42
2022-11-20T06:48:28.763Z,16.33
2022-11-20T06:50:56.016Z,17.17
2022-11-20T06:53:23.928Z,15.77
2022-11-20T06:55:51.902Z,16.75
2022-11-20T06:58:19.254Z,15.52
2022-11-20T07:00:46.351Z,16.52
2022-11-20T07:03:14.175Z,16.35
2022-11-20T07:05:41.742Z,15.55
2022-11-20T07:08:09.212Z,15.93
2022-11-20T07:10:37.214Z,17.98
2022-11-20T07:13:04.427Z,15.95
2022-11-20T07:15:31.581Z,18.45
2022-11-20T07:18:01.768Z,15.98
2022-11-20T07:20:29.210Z,15.65
2022-11-20T07:22:57.189Z,15.05
2022-11-20T07:25:28.934Z,16.17
2022-11-20T07:28:00.361Z,16.13
2022-11-20T07:30:31.074Z,15.25
2022-11-20T07:32:58.454Z,15.38
2022-11-20T07:35:26.226Z,14.77
2022-11-20T07:37:53.155Z,15.75
2022-11-20T07:40:20.789Z,14.52
2022-11-20T07:42:51.817Z,15.75
2022-11-20T07:45:19.381Z,16.25
2022-11-20T07:47:46.207Z,14.98
2022-11-20T07:50:14.123Z,15.10
2022-11-20T07:52:41.514Z,15.57
2022-11-20T07:55:09.502Z,15.27
2022-11-20T07:57:39.658Z,15.07
2022-11-20T08:00:10.205Z,14.95
2022-11-20T08:02:41.827Z,16.52
2022-11-20T08:05:10.564Z,17.00
2022-11-20T08:07:42.778Z,15.65
2022-11-20T08:10:12.206Z,16.40
2022-11-20T08:13:10.855Z,16.48
2022-11-20T08:15:39.327Z,16.92
2022-11-20T08:18:29.988Z,16.98
2022-11-20T08:20:55.936Z,18.60
2022-11-20T08:23:24.462Z,18.08
2022-11-20T08:25:52.533Z,17.48
2022-11-20T08:28:21.703Z,16.83
2022-11-20T08:30:49.869Z,17.48
2022-11-20T08:33:18.338Z,16.30
2022-11-20T08:35:45.219Z,18.30
2022-11-20T08:38:12.345Z,16.63
2022-11-20T08:40:39.127Z,15.75
2022-11-20T08:43:05.919Z,18.30
2022-11-20T08:45:35.055Z,18.10
2022-11-20T08:48:04.221Z,17.15
2022-11-20T08:50:34.928Z,16.95
2022-11-20T08:53:06.072Z,18.48
2022-11-20T08:55:33.492Z,18.60
2022-11-20T08:58:05.306Z,15.93
2022-11-20T09:00:33.436Z,17.13
2022-11-20T09:03:02.174Z,18.67
2022-11-20T09:05:29.733Z,17.83
2022-11-20T09:08:00.441Z,17.00
2022-11-20T09:10:28.658Z,17.58
2022-11-20T09:12:56.548Z,16.55
2022-11-20T09:15:24.891Z,17.13
2022-11-20T09:17:56.911Z,16.95
2022-11-20T09:20:24.243Z,15.38
2022-11-20T09:22:51.296Z,16.70
2022-11-20T09:25:18.750Z,15.80
2022-11-20T09:30:33.720Z,16.55
2022-11-20T09:33:00.762Z,15.77
2022-11-20T09:35:27.644Z,17.00
2022-11-20T09:37:54.449Z,16.60
2022-11-20T09:40:22.798Z,16.60
2022-11-20T09:43:19.305Z,18.08
2022-11-20T09:46:06.549Z,16.13
2022-11-20T09:48:33.296Z,17.30
2022-11-20T09:51:23.300Z,17.30
2022-11-20T09:54:02.555Z,16.98
2022-11-20T09:56:29.773Z,18.10
2022-11-20T09:59:01.130Z,16.75
2022-11-20T10:01:32.963Z,18.02
2022-11-20T10:04:17.845Z,17.23
2022-11-20T10:09:55.900Z,18.77
2022-11-20T10:12:25.247Z,18.20
2022-11-20T10:15:10.598Z,18.45
2022-11-20T10:17:58.585Z,18.33
2022-11-20T10:20:52.715Z,16.48
2022-11-20T10:23:39.736Z,16.45
2022-11-20T10:26:32.968Z,17.15
2022-11-20T10:29:19.764Z,17.33
2022-11-20T10:32:01.490Z,15.93
2022-11-20T10:34:38.352Z,17.58
2022-11-20T10:37:32.350Z,16.33
2022-11-20T10:40:22.682Z,16.70
2022-11-20T10:43:02.679Z,15.73
2022-11-20T10:45:46.658Z,17.35
2022-11-20T10:48:25.387Z,15.90
2022-11-20T10:51:26.387Z,15.95
2022-11-20T10:54:07.830Z,16.25
2022-11-20T10:56:46.871Z,17.45
2022-11-20T10:59:53.479Z,16.48
2022-11-20T11:02:25.563Z,17.67
2022-11-20T11:04:54.431Z,17.20
2022-11-20T11:07:39.228Z,15.63
2022-11-20T11:10:23.910Z,16.58
2022-11-20T11:12:50.786Z,17.50
2022-11-20T11:15:30.962Z,16.65
2022-11-20T11:17:58.213Z,16.88
2022-11-20T11:20:27.117Z,14.63
2022-11-20T11:22:57.323Z,16.13
2022-11-20T11:25:35.908Z,15.32
2022-11-20T11:28:05.740Z,15.63
2022-11-20T11:30:44.084Z,15.57
2022-11-20T11:33:13.307Z,14.65
2022-11-20T11:35:53.698Z,14.18
2022-11-20T11:38:35.283Z,15.98
2022-11-20T11:41:03.321Z,15.05
2022-11-20T11:43:54.836Z,15.55
2022-11-20T11:46:21.616Z,16.48
2022-11-20T11:49:18.687Z,14.70
2022-11-20T11:52:03.125Z,14.82
2022-11-20T11:54:47.828Z,16.25
2022-11-20T11:57:37.688Z,15.60
2022-11-20T12:00:13.187Z,14.77
2022-11-20T12:02:45.974Z,16.40
2022-11-20T12:05:27.064Z,15.80
2022-11-20T12:08:09.446Z,15.25
2022-11-20T12:10:39.005Z,15.45
2022-11-20T12:13:18.721Z,16.23
2022-11-20T12:15:48.457Z,16.65
2022-11-20T12:18:23.462Z,16.17
2022-11-20T12:21:11.343Z,14.80
2022-11-20T12:23:49.941Z,15.82
2022-11-20T12:26:42.784Z,14.75
2022-11-20T12:29:41.268Z,13.40
2022-11-20T12:32:16.840Z,14.65
2022-11-20T12:34:59.986Z,14.23
2022-11-20T12:37:38.668Z,14.40
2022-11-20T12:40:35.212Z,15.50
2022-11-20T12:43:42.877Z,15.50
2022-11-20T12:46:40.030Z,14.70
2022-11-20T12:49:30.467Z,14.90
2022-11-20T12:52:28.385Z,15.60
2022-11-20T12:55:17.069Z,15.57
2022-11-20T12:58:02.475Z,15.40
2022-11-20T13:00:31.860Z,15.38
2022-11-20T13:03:08.914Z,15.05
2022-11-20T13:06:02.930Z,15.30
2022-11-20T13:08:34.505Z,15.40
2022-11-20T13:11:07.516Z,16.95
2022-11-20T13:13:46.427Z,14.30
2022-11-20T13:16:38.206Z,15.85
2022-11-20T13:19:06.540Z,16.63
2022-11-20T13:21:42.976Z,16.20
2022-11-20T13:24:33.545Z,16.27
2022-11-20T13:27:06.023Z,17.08
2022-11-20T13:29:34.557Z,17.88
2022-11-20T13:32:14.504Z,15.70
2022-11-20T13:34:52.058Z,15.88
2022-11-20T13:37:35.138Z,15.07
2022-11-20T13:40:13.745Z,16.10
2022-11-20T13:42:43.619Z,16.83
2022-11-20T13:45:23.957Z,17.98
2022-11-20T13:47:52.780Z,17.92
2022-11-20T13:50:20.367Z,16.95
2022-11-20T13:53:11.439Z,16.42
2022-11-20T13:55:53.231Z,16.88
2022-11-20T13:58:33.517Z,15.85
2022-11-20T14:01:10.334Z,17.20
2022-11-20T14:04:04.591Z,15.80
2022-11-20T14:06:40.747Z,15.73
2022-11-20T14:09:13.823Z,15.80
2022-11-20T14:11:48.018Z,15.30
2022-11-20T14:14:18.658Z,16.40
2022-11-20T14:16:48.998Z,17.83
2022-11-20T14:19:21.865Z,16.77
2022-11-20T14:21:50.653Z,16.92
2022-11-20T14:24:23.345Z,16.08
2022-11-20T14:26:51.462Z,17.45
2022-11-20T14:29:20.928Z,17.45
2022-11-20T14:31:53.855Z,17.13
2022-11-20T14:34:27.510Z,17.30
2022-11-20T14:37:16.384Z,17.52
2022-11-20T14:39:53.764Z,18.73
2022-11-20T14:42:25.974Z,16.02
2022-11-20T14:44:56.474Z,17.55
2022-11-20T14:47:32.010Z,16.45
2022-11-20T14:50:02.638Z,16.90
2022-11-20T14:52:33.048Z,16.25
2022-11-20T14:55:00.695Z,15.52
2022-11-20T14:57:31.551Z,16.33
2022-11-20T15:00:13.379Z,17.10
2022-11-20T15:02:43.189Z,14.93
2022-11-20T15:05:10.171Z,16.42
2022-11-20T15:07:46.497Z,16.73
2022-11-20T15:10:25.128Z,16.92
2022-11-20T15:13:08.362Z,14.65
2022-11-20T15:15:51.412Z,15.55
2022-11-20T15:18:21.758Z,16.20
2022-11-20T15:20:52.012Z,14.57
2022-11-20T15:23:20.111Z,16.35
2022-11-20T15:25:49.585Z,13.75
2022-11-20T15:28:16.380Z,15.57
2022-11-20T15:30:43.206Z,15.57
2022-11-20T15:33:11.217Z,14.40
2022-11-20T15:35:40.418Z,16.70
2022-11-20T15:38:07.261Z,14.98
2022-11-20T15:40:34.116Z,16.70
2022-11-20T15:43:08.155Z,17.85
2022-11-20T15:45:40.332Z,16.15
2022-11-20T15:48:13.723Z,16.77
2022-11-20T15:50:50.645Z,15.18
2022-11-20T15:53:17.490Z,15.73
2022-11-20T15:55:44.332Z,15.25
2022-11-20T15:58:11.202Z,16.42
2022-11-20T16:00:38.000Z,16.52
2022-11-20T16:03:05.020Z,17.00
2022-11-20T16:05:31.984Z,17.45
2022-11-20T16:07:58.929Z,16.20
2022-11-20T16:10:25.992Z,15.82
2022-11-20T16:13:11.522Z,18.10
2022-11-20T16:15:47.556Z,17.45
2022-11-20T16:18:17.845Z,15.52
2022-11-20T16:20:46.523Z,16.77
2022-11-20T16:23:14.010Z,17.30
2022-11-20T16:25:40.998Z,17.48
2022-11-20T16:28:07.894Z,18.25
2022-11-20T16:30:35.402Z,16.25
2022-11-20T16:33:03.631Z,18.52
2022-11-20T16:35:31.472Z,17.05
2022-11-20T16:37:59.189Z,17.42
2022-11-20T16:40:26.455Z,17.33
2022-11-20T16:42:53.291Z,17.90
2022-11-20T16:45:24.857Z,17.38
2022-11-20T16:47:53.746Z,18.00
2022-11-20T16:50:20.781Z,16.85
2022-11-20T16:52:47.701Z,17.95
2022-11-20T16:55:14.608Z,16.92
2022-11-20T16:57:42.686Z,18.58
2022-11-20T17:00:10.147Z,17.40
2022-11-20T17:02:38.071Z,16.20
2022-11-20T17:05:17.470Z,18.85
2022-11-20T17:07:44.407Z,16.30
2022-11-20T17:10:11.370Z,15.00
2022-11-20T17:12:38.142Z,16.50
2022-11-20T17:15:05.392Z,16.70
2022-11-20T17:17:32.198Z,16.55
2022-11-20T17:19:58.973Z,16.20
2022-11-20T17:22:25.816Z,15.70
2022-11-20T17:24:52.582Z,15.20
2022-11-20T17:27:19.778Z,16.13
2022-11-20T17:29:46.560Z,15.30
2022-11-20T17:32:13.752Z,16.38
2022-11-20T17:34:40.874Z,17.58
2022-11-20T17:37:07.646Z,15.52
2022-11-20T17:39:34.495Z,16.50
2022-11-20T17:42:19.738Z,15.73
2022-11-20T17:44:47.433Z,14.18
2022-11-20T17:47:14.688Z,16.83
2022-11-20T17:49:41.702Z,16.85
2022-11-20T17:52:08.540Z,17.63
2022-11-20T17:54:35.349Z,15.48
2022-11-20T17:57:20.664Z,16.45
2022-11-20T17:59:47.418Z,16.08
2022-11-20T18:02:14.247Z,16.45
2022-11-20T18:04:41.164Z,14.52
2022-11-20T18:07:08.103Z,16.88
2022-11-20T18:09:35.018Z,15.32
2022-11-20T18:12:01.809Z,15.85
2022-11-20T18:14:36.542Z,15.75
2022-11-20T18:17:04.990Z,16.23
2022-11-20T18:19:37.573Z,16.98
2022-11-20T18:22:09.312Z,16.70
2022-11-20T18:24:37.220Z,14.75
2022-11-20T18:27:05.841Z,18.17
2022-11-20T18:29:33.218Z,17.27
2022-11-20T18:32:00.877Z,18.25
2022-11-20T18:34:27.869Z,17.80
2022-11-20T18:36:54.694Z,18.65
2022-11-20T18:39:21.838Z,16.95
2022-11-20T18:42:07.052Z,17.13
2022-11-20T18:44:52.332Z,17.98
2022-11-20T18:47:31.963Z,16.65
2022-11-20T18:50:01.255Z,17.48
2022-11-20T18:52:29.504Z,18.25
2022-11-20T18:54:58.827Z,17.10
2022-11-20T18:57:27.930Z,18.27
2022-11-20T18:59:56.218Z,18.02
2022-11-20T19:02:23.173Z,18.05
2022-11-20T19:04:53.014Z,18.63
2022-11-20T19:07:19.983Z,18.38
2022-11-20T19:09:52.493Z,16.92
2022-11-20T19:12:20.097Z,18.95
2022-11-20T19:14:47.355Z,19.02
2022-11-20T19:17:14.574Z,19.30
2022-11-20T19:19:41.521Z,19.27
2022-11-20T19:22:09.362Z,19.95
2022-11-20T19:24:36.173Z,18.73
2022-11-20T19:27:03.093Z,19.90
2022-11-20T19:29:30.637Z,20.15
2022-11-20T19:31:58.185Z,18.27
2022-11-20T19:34:26.073Z,19.05
2022-11-20T19:36:53.037Z,19.60
2022-11-20T19:39:19.947Z,19.80
2022-11-20T19:41:46.827Z,18.98
2022-11-20T19:44:15.870Z,17.42
2022-11-20T19:46:43.405Z,21.33
2022-11-20T19:49:12.897Z,18.75
2022-11-20T19:51:45.679Z,19.70
2022-11-20T19:54:13.212Z,20.40
2022-11-20T19:56:40.097Z,22.27
2022-11-20T19:59:06.919Z,19.80
2022-11-20T20:01:34.015Z,19.27
2022-11-20T20:04:02.657Z,20.00
2022-11-20T20:06:30.298Z,19.27
2022-11-20T20:08:59.159Z,22.48
2022-11-20T20:11:28.291Z,19.45
2022-11-20T20:13:56.429Z,20.40
2022-11-20T20:16:26.271Z,19.88
2022-11-20T20:18:58.358Z,20.00
2022-11-20T20:21:25.423Z,20.83
2022-11-20T20:23:56.431Z,20.77
2022-11-20T20:26:24.920Z,20.08
2022-11-20T20:28:51.862Z,20.85
2022-11-20T20:31:21.925Z,21.90
2022-11-20T20:33:48.921Z,19.55
2022-11-20T20:36:18.671Z,20.70
2022-11-20T20:38:54.956Z,20.15
2022-11-20T20:41:23.450Z,20.45
2022-11-20T20:44:09.253Z,19.95
2022-11-20T20:46:36.184Z,20.10
2022-11-20T20:49:03.051Z,19.75
2022-11-20T20:51:29.931Z,21.20
2022-11-20T20:53:57.104Z,20.13
2022-11-20T20:56:23.897Z,21.10
2022-11-20T20:58:50.692Z,19.65
2022-11-20T21:01:22.763Z,22.00
2022-11-20T21:03:49.726Z,20.50
2022-11-20T21:06:16.532Z,19.45
2022-11-20T21:08:44.592Z,20.98
2022-11-20T21:11:16.942Z,20.67
2022-11-20T21:13:44.679Z,20.52
2022-11-20T21:16:13.346Z,20.17
2022-11-20T21:18:40.481Z,21.35
2022-11-20T21:21:27.798Z,21.50
2022-11-20T21:23:54.613Z,18.42
2022-11-20T21:26:22.072Z,21.88
2022-11-20T21:28:50.071Z,21.30
2022-11-20T21:31:22.245Z,20.23
2022-11-20T21:33:50.828Z,22.63
2022-11-20T21:36:19.714Z,20.85
2022-11-20T21:38:47.114Z,22.45
2022-11-20T21:41:15.236Z,22.67
2022-11-20T21:43:45.693Z,22.92
2022-11-20T21:46:16.278Z,22.00
2022-11-20T21:48:45.365Z,22.45
2022-11-20T21:51:17.496Z,21.70
2022-11-20T21:53:45.358Z,21.65
2022-11-20T21:56:17.749Z,20.88
2022-11-20T21:58:47.773Z,22.00
2022-11-20T22:01:26.634Z,21.30
2022-11-20T22:03:57.160Z,21.95
2022-11-20T22:06:32.689Z,19.98
2022-11-20T22:09:00.221Z,21.73
2022-11-20T22:11:27.071Z,22.13
2022-11-20T22:14:12.674Z,22.27
2022-11-20T22:16:39.520Z,21.88
2022-11-20T22:19:07.304Z,22.48
2022-11-20T22:21:34.810Z,21.92
2022-11-20T22:24:01.678Z,22.95
2022-11-20T22:26:40.189Z,21.58
2022-11-20T22:29:07.930Z,22.58
2022-11-20T22:31:34.697Z,23.40
2022-11-20T22:34:02.557Z,23.70
2022-11-20T22:36:31.038Z,22.83
2022-11-20T22:38:58.597Z,25.35
2022-11-20T22:41:28.983Z,21.58
2022-11-20T22:44:07.460Z,23.40
2022-11-20T22:46:36.727Z,23.70
2022-11-20T22:49:06.636Z,23.30
2022-11-20T22:51:35.643Z,24.00
2022-11-20T22:54:05.739Z,24.10
2022-11-20T22:56:32.892Z,22.80
2022-11-20T22:58:59.654Z,23.30
2022-11-20T23:01:29.149Z,22.55
2022-11-20T23:03:58.370Z,22.40
2022-11-20T23:06:25.514Z,23.65
2022-11-20T23:08:53.241Z,23.48
2022-11-20T23:11:25.930Z,22.65
2022-11-20T23:14:04.454Z,25.77
2022-11-20T23:16:32.755Z,22.73
2022-11-20T23:19:05.740Z,24.95
2022-11-20T23:21:33.243Z,24.17
2022-11-20T23:24:00.358Z,23.23
2022-11-20T23:26:29.620Z,23.92
2022-11-20T23:28:58.350Z,23.30
2022-11-20T23:31:26.964Z,23.38
2022-11-20T23:33:54.250Z,23.52
2022-11-20T23:36:21.090Z,23.05
2022-11-20T23:38:48.075Z,23.83
2022-11-20T23:41:15.068Z,22.35
2022-11-20T23:43:41.903Z,24.60
2022-11-20T23:46:13.726Z,24.77
2022-11-20T23:48:43.255Z,23.73
2022-11-20T23:51:10.034Z,23.48
2022-11-20T23:53:36.906Z,24.73
2022-11-20T23:56:05.239Z,25.30
2022-11-20T23:58:37.859Z,24.02
